Terminal Aerodrome Forecast
Issued by NWS Northern Indiana

Home | Current Version | Previous Version | Graphics & Text | Print | Product List | Glossary Off
Versions: 1 2 3 4 5 6 7 8 9 10 11 12 13 14 15 16

606
FTUS43 KIWX 282329
TAFFWA
TAF
KFWA 282329Z 2900/2924 01006KT P6SM OVC017
     FM290600 05006KT P6SM SCT020
     FM291700 07010KT P6SM BKN200=

USA.gov is the U.S. government's official web portal to all federal, state and local government web resources and services.